Choctaw — WDF4875 — position and weather

sailwx.info

Track history (hours):
 
Tides and Currents Weather Stations Pressure Air Temp Water Temp Dewpoint Dewpoint Depression Visibility Wind Speed Wind Dir Waves Ship Positions

Choctaw

Owner: Canal Barge Company, Inc., Belle Chasse, LA. More information available from US FCC via Universal Licensing System and Coast Guard Vessel Documentation Center.

Last reported at 2018-Jul-16 13:30 UTC. Time now 2018-Jul-16 14:37 UTC.
Position N 29°25' W 094°44'.

Length 25 m.

Type: Towing. MMSI: 367456760.

Date/timePositionNaut miles runAvg speedWind from/ knotsBaromVisibWave heightAir tempDewpointWater temp
2018-Jul-16 13:30N 29°25' W 094°44'0 0.0
2018-Jul-16 11:27N 29°25' W 094°44'0 0.0
2018-Jul-16 10:42N 29°25' W 094°44'0 0.0
2018-Jul-16 10:12N 29°25' W 094°44'0 0.1
2018-Jul-16 09:51N 29°25' W 094°44'0 0.0
2018-Jul-16 07:51N 29°25' W 094°44'0 0.0
2018-Jul-16 03:36N 29°25' W 094°44'0 0.0
2018-Jul-16 03:12N 29°25' W 094°44'1 0.5
2018-Jul-16 01:18N 29°24' W 094°45'2 5.1
2018-Jul-16 00:57N 29°23' W 094°46'2 4.5
2018-Jul-16 00:30N 29°23' W 094°49'4 6.7
2018-Jul-15 23:55N 29°27' W 094°50'3 6.6
2018-Jul-15 23:26N 29°30' W 094°52'3 6.9
2018-Jul-15 23:00N 29°32' W 094°54'3 6.8
2018-Jul-15 22:30N 29°35' W 094°56'4 7.0
2018-Jul-15 22:00N 29°38' W 094°58'4 7.1
2018-Jul-15 21:30N 29°41' W 094°59'2 0.1
2018-Jul-14 08:08N 29°43' W 095°01'1 0.0
2018-Jul-12 23:39N 29°42' W 095°03'2 5.7
2018-Jul-12 23:22N 29°42' W 095°01'2 5.4
2018-Jul-12 22:55N 29°41' W 094°59'3 7.2
2018-Jul-12 22:29N 29°38' W 094°58'3 7.3
2018-Jul-12 22:01N 29°35' W 094°56'14 7.4
2018-Jul-12 20:06N 29°22' W 094°48'1 7.4
2018-Jul-12 20:01N 29°22' W 094°47'3 5.5
2018-Jul-12 19:31N 29°19' W 094°48'1 1.9
2018-Jul-12 19:00N 29°19' W 094°49'0 0.1
2018-Jul-12 18:29N 29°19' W 094°49'7 0.3
2018-Jul-11 13:47N 29°25' W 094°44'0 0.0
2018-Jul-11 13:23N 29°25' W 094°44'0 0.0
2018-Jul-11 12:53N 29°25' W 094°44'0 0.0
2018-Jul-11 12:26N 29°25' W 094°44'0 0.0
2018-Jul-11 07:25N 29°25' W 094°44'0 0.0
2018-Jul-11 06:49N 29°25' W 094°44'5 0.2
2018-Jul-10 03:24N 29°22' W 094°49'  
2018-Jul-07 03:31N 29°31' W 094°53'0 7.7
2018-Jul-07 03:30N 29°31' W 094°53'4 7.6
2018-Jul-07 03:01N 29°34' W 094°55'4 7.4
2018-Jul-07 02:30N 29°37' W 094°58'4 8.1
2018-Jul-07 02:00N 29°41' W 094°59'4 3.4
2018-Jul-07 00:58N 29°42' W 095°03'0 0.0
2018-Jul-07 00:16N 29°42' W 095°03'0 0.0
2018-Jul-06 14:16N 29°42' W 095°03'0 0.0
2018-Jul-06 13:34N 29°42' W 095°03'  
Track history (hours):
 
Tides and Currents Weather Stations Pressure Air Temp Water Temp Dewpoint Dewpoint Depression Visibility Wind Speed Wind Dir Waves Ship Positions

Choctaw

Owner: Canal Barge Company, Inc., Belle Chasse, LA. More information available from US FCC via Universal Licensing System and Coast Guard Vessel Documentation Center.

Last reported at 2018-Jul-16 13:30 UTC. Time now 2018-Jul-16 14:37 UTC.
Position N 29°25' W 094°44'.

Length 25 m.

Type: Towing. MMSI: 367456760.

Date/timePositionNaut miles runAvg speedWind from/ knotsBaromVisibWave heightAir tempDewpointWater temp
2018-Jul-16 13:30N 29°25' W 094°44'0 0.0
2018-Jul-16 11:27N 29°25' W 094°44'0 0.0
2018-Jul-16 10:42N 29°25' W 094°44'0 0.0
2018-Jul-16 10:12N 29°25' W 094°44'0 0.1
2018-Jul-16 09:51N 29°25' W 094°44'0 0.0
2018-Jul-16 07:51N 29°25' W 094°44'0 0.0
2018-Jul-16 03:36N 29°25' W 094°44'0 0.0
2018-Jul-16 03:12N 29°25' W 094°44'1 0.5
2018-Jul-16 01:18N 29°24' W 094°45'2 5.1
2018-Jul-16 00:57N 29°23' W 094°46'2 4.5
2018-Jul-16 00:30N 29°23' W 094°49'4 6.7
2018-Jul-15 23:55N 29°27' W 094°50'3 6.6
2018-Jul-15 23:26N 29°30' W 094°52'3 6.9
2018-Jul-15 23:00N 29°32' W 094°54'3 6.8
2018-Jul-15 22:30N 29°35' W 094°56'4 7.0
2018-Jul-15 22:00N 29°38' W 094°58'4 7.1
2018-Jul-15 21:30N 29°41' W 094°59'2 0.1
2018-Jul-14 08:08N 29°43' W 095°01'1 0.0
2018-Jul-12 23:39N 29°42' W 095°03'2 5.7
2018-Jul-12 23:22N 29°42' W 095°01'2 5.4
2018-Jul-12 22:55N 29°41' W 094°59'3 7.2
2018-Jul-12 22:29N 29°38' W 094°58'3 7.3
2018-Jul-12 22:01N 29°35' W 094°56'14 7.4
2018-Jul-12 20:06N 29°22' W 094°48'1 7.4
2018-Jul-12 20:01N 29°22' W 094°47'3 5.5
2018-Jul-12 19:31N 29°19' W 094°48'1 1.9
2018-Jul-12 19:00N 29°19' W 094°49'0 0.1
2018-Jul-12 18:29N 29°19' W 094°49'7 0.3
2018-Jul-11 13:47N 29°25' W 094°44'0 0.0
2018-Jul-11 13:23N 29°25' W 094°44'0 0.0
2018-Jul-11 12:53N 29°25' W 094°44'0 0.0
2018-Jul-11 12:26N 29°25' W 094°44'0 0.0
2018-Jul-11 07:25N 29°25' W 094°44'0 0.0
2018-Jul-11 06:49N 29°25' W 094°44'5 0.2
2018-Jul-10 03:24N 29°22' W 094°49'  
2018-Jul-07 03:31N 29°31' W 094°53'0 7.7
2018-Jul-07 03:30N 29°31' W 094°53'4 7.6
2018-Jul-07 03:01N 29°34' W 094°55'4 7.4
2018-Jul-07 02:30N 29°37' W 094°58'4 8.1
2018-Jul-07 02:00N 29°41' W 094°59'4 3.4
2018-Jul-07 00:58N 29°42' W 095°03'0 0.0
2018-Jul-07 00:16N 29°42' W 095°03'0 0.0
2018-Jul-06 14:16N 29°42' W 095°03'0 0.0
2018-Jul-06 13:34N 29°42' W 095°03'  

Dump ship's entire track history